createdAt,value
2023-05-21T00:04:55.026Z,12.79
2023-05-21T00:09:56.235Z,12.73
2023-05-21T00:14:57.525Z,12.66
2023-05-21T00:19:59.941Z,12.61
2023-05-21T00:25:01.203Z,12.55
2023-05-21T00:30:02.478Z,12.51
2023-05-21T00:35:03.741Z,12.53
2023-05-21T00:40:09.029Z,12.54
2023-05-21T00:45:10.311Z,12.51
2023-05-21T00:50:11.580Z,12.50
2023-05-21T00:55:12.838Z,12.50
2023-05-21T01:00:14.597Z,12.49
2023-05-21T01:05:16.233Z,12.49
2023-05-21T01:10:17.425Z,12.47
2023-05-21T01:15:18.695Z,12.45
2023-05-21T01:20:19.936Z,12.47
2023-05-21T01:25:21.178Z,12.50
2023-05-21T01:30:22.474Z,12.52
2023-05-21T01:35:23.786Z,12.44
2023-05-21T01:40:24.989Z,12.41
2023-05-21T01:45:26.167Z,12.35
2023-05-21T01:50:27.413Z,12.34
2023-05-21T01:55:30.729Z,12.30
2023-05-21T02:00:32.589Z,12.29
2023-05-21T02:05:33.976Z,12.23
2023-05-21T02:10:35.308Z,12.14
2023-05-21T02:15:36.888Z,12.16
2023-05-21T02:20:38.427Z,12.16
2023-05-21T02:25:39.829Z,12.11
2023-05-21T02:30:41.054Z,12.13
2023-05-21T02:35:43.851Z,12.11
2023-05-21T02:40:45.118Z,12.14
2023-05-21T02:45:46.429Z,12.14
2023-05-21T02:50:47.660Z,12.09
2023-05-21T02:55:48.941Z,12.09
2023-05-21T03:00:50.216Z,12.10
2023-05-21T03:05:51.421Z,12.13
2023-05-21T03:10:52.679Z,12.13
2023-05-21T03:15:57.328Z,12.15
2023-05-21T03:20:58.921Z,12.10
2023-05-21T03:26:00.785Z,12.11
2023-05-21T03:31:01.999Z,12.14
2023-05-21T03:36:03.209Z,12.16
2023-05-21T03:41:04.482Z,12.16
2023-05-21T03:46:05.768Z,12.18
2023-05-21T03:51:07.815Z,12.19
2023-05-21T03:56:09.099Z,12.19
2023-05-21T04:01:10.848Z,12.13
2023-05-21T04:06:12.119Z,12.14
2023-05-21T04:11:13.389Z,12.06
2023-05-21T04:16:14.920Z,12.05
2023-05-21T04:21:16.348Z,12.14
2023-05-21T04:26:17.574Z,12.22
2023-05-21T04:31:18.888Z,12.14
2023-05-21T04:36:20.250Z,12.18
2023-05-21T04:41:21.521Z,12.32
2023-05-21T04:46:25.948Z,12.43
2023-05-21T04:51:27.195Z,12.51
2023-05-21T04:56:28.470Z,12.58
2023-05-21T05:01:29.855Z,12.68
2023-05-21T05:06:31.660Z,12.77
2023-05-21T05:11:33.049Z,12.86
2023-05-21T05:16:35.582Z,12.99
2023-05-21T05:21:37.751Z,13.11
2023-05-21T05:26:39.014Z,13.14
2023-05-21T05:31:40.237Z,13.23
2023-05-21T05:36:41.554Z,13.32
2023-05-21T05:41:42.826Z,13.43
2023-05-21T05:46:44.127Z,13.54
2023-05-21T05:51:45.630Z,13.64
2023-05-21T05:56:46.850Z,13.72
2023-05-21T06:01:48.170Z,13.80
2023-05-21T06:06:49.465Z,13.93
2023-05-21T06:11:50.734Z,14.12
2023-05-21T06:16:51.918Z,14.22
2023-05-21T06:21:53.156Z,14.35
2023-05-21T06:26:54.459Z,14.50
2023-05-21T06:31:55.659Z,14.60
2023-05-21T06:36:56.893Z,14.75
2023-05-21T06:41:58.116Z,14.85
2023-05-21T06:46:59.345Z,14.88
2023-05-21T06:52:01.501Z,15.02
2023-05-21T06:57:02.764Z,15.15
2023-05-21T07:02:04.755Z,15.43
2023-05-21T07:07:06.082Z,15.78
2023-05-21T07:12:07.303Z,16.04
2023-05-21T07:17:08.611Z,16.33
2023-05-21T07:22:09.986Z,16.35
2023-05-21T07:27:24.803Z,16.31
2023-05-21T07:32:29.041Z,16.40
2023-05-21T07:37:30.358Z,16.66
2023-05-21T07:42:31.549Z,16.97
2023-05-21T07:47:32.838Z,17.07
2023-05-21T07:52:34.240Z,17.27
2023-05-21T07:57:35.797Z,17.44
2023-05-21T08:02:39.037Z,17.53
2023-05-21T08:07:40.540Z,17.69
2023-05-21T08:12:41.789Z,17.71
2023-05-21T08:17:43.087Z,17.83
2023-05-21T08:22:44.419Z,18.02
2023-05-21T08:27:45.614Z,17.92
2023-05-21T08:32:46.915Z,17.93
2023-05-21T08:37:48.222Z,18.04
2023-05-21T08:42:49.515Z,18.22
2023-05-21T08:47:50.846Z,18.35
2023-05-21T08:52:52.465Z,18.77
2023-05-21T08:57:53.833Z,18.85
2023-05-21T09:02:56.158Z,18.86
2023-05-21T09:07:57.494Z,19.16
2023-05-21T09:12:58.737Z,19.25
2023-05-21T09:18:00.051Z,19.17
2023-05-21T09:23:01.510Z,19.60
2023-05-21T09:28:02.826Z,20.07
2023-05-21T09:33:04.199Z,20.74
2023-05-21T09:38:05.454Z,21.80
2023-05-21T09:43:06.652Z,22.02
2023-05-21T09:48:08.180Z,21.84
2023-05-21T09:53:09.430Z,22.10
2023-05-21T09:58:11.700Z,23.02
2023-05-21T10:03:12.974Z,23.89
2023-05-21T10:08:14.309Z,24.34
2023-05-21T10:13:15.523Z,25.02
2023-05-21T10:18:17.099Z,25.08
2023-05-21T10:23:18.341Z,24.27
2023-05-21T10:28:19.599Z,23.74
2023-05-21T10:33:20.943Z,24.22
2023-05-21T10:38:22.392Z,23.47
2023-05-21T10:43:23.586Z,23.54
2023-05-21T10:48:24.885Z,24.46
2023-05-21T10:53:26.275Z,24.27
2023-05-21T10:58:29.794Z,25.03
2023-05-21T11:03:33.637Z,25.13
2023-05-21T11:08:37.529Z,24.87
2023-05-21T11:13:38.849Z,25.09
2023-05-21T11:18:40.079Z,24.48
2023-05-21T11:23:41.446Z,25.66
2023-05-21T11:28:42.637Z,25.25
2023-05-21T11:33:43.854Z,25.69
2023-05-21T11:38:45.124Z,25.57
2023-05-21T11:43:46.381Z,25.44
2023-05-21T11:48:47.617Z,24.65
2023-05-21T11:53:48.848Z,24.93
2023-05-21T11:58:50.106Z,26.05
2023-05-21T12:03:51.456Z,25.25
2023-05-21T12:08:58.009Z,26.09
2023-05-21T12:13:59.296Z,25.85
2023-05-21T12:19:00.606Z,25.85
2023-05-21T12:24:03.969Z,26.06
2023-05-21T12:29:05.612Z,25.85
2023-05-21T12:34:08.189Z,25.77
2023-05-21T12:39:11.238Z,25.51
2023-05-21T12:44:12.649Z,25.67
2023-05-21T12:49:14.020Z,25.59
2023-05-21T12:54:15.277Z,25.60
2023-05-21T12:59:16.563Z,25.53
2023-05-21T13:04:17.773Z,26.20
2023-05-21T13:09:19.024Z,25.36
2023-05-21T13:14:20.248Z,25.56
2023-05-21T13:19:21.453Z,25.63
2023-05-21T13:24:22.770Z,24.89
2023-05-21T13:29:24.063Z,24.69
2023-05-21T13:34:25.602Z,24.83
2023-05-21T13:39:27.703Z,24.85
2023-05-21T13:44:28.975Z,24.88
2023-05-21T13:49:30.276Z,24.92
2023-05-21T13:54:31.521Z,24.91
2023-05-21T13:59:33.856Z,24.67
2023-05-21T14:04:37.168Z,24.77
2023-05-21T14:09:40.275Z,25.07
2023-05-21T14:14:42.060Z,25.05
2023-05-21T14:19:43.415Z,25.08
2023-05-21T14:24:44.595Z,24.88
2023-05-21T14:29:45.840Z,24.76
2023-05-21T14:34:47.114Z,24.99
2023-05-21T14:39:48.361Z,25.15
2023-05-21T14:44:49.670Z,25.49
2023-05-21T14:49:51.695Z,25.54
2023-05-21T14:54:53.040Z,25.51
2023-05-21T14:59:54.291Z,25.70
2023-05-21T15:04:56.344Z,25.08
2023-05-21T15:09:57.593Z,24.74
2023-05-21T15:14:58.866Z,24.89
2023-05-21T15:20:04.501Z,24.89
2023-05-21T15:25:05.802Z,25.04
2023-05-21T15:30:07.204Z,24.89
2023-05-21T15:35:08.665Z,24.86
2023-05-21T15:40:09.981Z,24.88
2023-05-21T15:45:11.200Z,25.03
2023-05-21T15:50:12.460Z,25.06
2023-05-21T15:55:14.012Z,24.87
2023-05-21T16:00:15.428Z,25.06
2023-05-21T16:05:16.664Z,25.04
2023-05-21T16:10:18.014Z,25.03
2023-05-21T16:15:19.299Z,24.74
2023-05-21T16:20:21.965Z,24.66
2023-05-21T16:25:23.220Z,24.43
2023-05-21T16:30:24.507Z,24.38
2023-05-21T16:35:29.069Z,24.42
2023-05-21T16:40:31.515Z,24.37
2023-05-21T16:45:32.739Z,24.48
2023-05-21T16:50:34.006Z,24.43
2023-05-21T16:55:35.456Z,24.21
2023-05-21T17:00:36.948Z,23.94
2023-05-21T17:05:38.500Z,23.85
2023-05-21T17:10:39.967Z,23.66
2023-05-21T17:15:41.230Z,23.57
2023-05-21T17:20:43.643Z,23.46
2023-05-21T17:25:45.032Z,23.44
2023-05-21T17:30:48.745Z,23.32
2023-05-21T17:35:50.848Z,23.24
2023-05-21T17:40:52.061Z,23.05
2023-05-21T17:45:53.297Z,22.83
2023-05-21T17:50:54.534Z,22.69
2023-05-21T17:55:55.775Z,22.00
2023-05-21T18:00:57.067Z,21.47
2023-05-21T18:05:58.348Z,21.19
2023-05-21T18:11:01.436Z,21.01
2023-05-21T18:16:02.637Z,20.80
2023-05-21T18:21:03.889Z,20.67
2023-05-21T18:26:05.804Z,20.52
2023-05-21T18:31:07.100Z,20.30
2023-05-21T18:36:08.312Z,20.18
2023-05-21T18:41:09.568Z,20.01
2023-05-21T18:46:10.949Z,19.92
2023-05-21T18:51:12.301Z,19.86
2023-05-21T18:56:13.553Z,19.75
2023-05-21T19:01:14.804Z,19.53
2023-05-21T19:06:16.158Z,19.38
2023-05-21T19:11:18.691Z,19.28
2023-05-21T19:16:20.043Z,19.25
2023-05-21T19:21:21.431Z,19.25
2023-05-21T19:26:22.902Z,19.22
2023-05-21T19:31:25.191Z,19.13
2023-05-21T19:36:29.074Z,19.07
2023-05-21T19:41:32.006Z,19.05
2023-05-21T19:46:33.222Z,19.03
2023-05-21T19:51:34.417Z,19.09
2023-05-21T19:56:36.181Z,19.08
2023-05-21T20:01:39.701Z,19.13
2023-05-21T20:06:40.977Z,19.14
2023-05-21T20:11:42.967Z,19.20
2023-05-21T20:16:46.948Z,19.18
2023-05-21T20:21:48.232Z,19.23
2023-05-21T20:26:49.716Z,19.24
2023-05-21T20:31:50.938Z,19.27
2023-05-21T20:36:52.223Z,19.27
2023-05-21T20:41:53.609Z,19.24
2023-05-21T20:46:54.840Z,19.24
2023-05-21T20:51:56.223Z,19.15
2023-05-21T20:56:59.049Z,19.07
2023-05-21T21:02:00.389Z,18.98
2023-05-21T21:07:01.896Z,18.85
2023-05-21T21:12:14.405Z,18.71
2023-05-21T21:17:24.394Z,18.58
2023-05-21T21:22:25.654Z,18.49
2023-05-21T21:27:26.907Z,18.35
2023-05-21T21:32:28.161Z,18.30
2023-05-21T21:37:29.477Z,18.35
2023-05-21T21:42:30.731Z,18.38
2023-05-21T21:47:32.092Z,18.37
2023-05-21T21:52:33.448Z,18.30
2023-05-21T21:57:34.696Z,18.23
2023-05-21T22:02:36.602Z,18.10
2023-05-21T22:07:38.660Z,17.98
2023-05-21T22:12:40.465Z,17.88
2023-05-21T22:17:42.016Z,17.84
2023-05-21T22:22:43.313Z,17.72
2023-05-21T22:27:44.580Z,17.60
2023-05-21T22:32:45.839Z,17.52
2023-05-21T22:37:47.068Z,17.44
2023-05-21T22:42:48.352Z,17.35
2023-05-21T22:47:51.786Z,17.30
2023-05-21T22:52:53.026Z,17.23
2023-05-21T22:57:54.233Z,17.18
2023-05-21T23:02:55.634Z,17.16
2023-05-21T23:07:56.823Z,17.14
2023-05-21T23:12:58.118Z,16.87
2023-05-21T23:18:00.354Z,17.08
2023-05-21T23:23:01.683Z,17.08
2023-05-21T23:28:03.257Z,17.01
2023-05-21T23:33:04.555Z,16.98
2023-05-21T23:38:05.893Z,16.96
2023-05-21T23:43:07.138Z,16.91
2023-05-21T23:48:08.509Z,16.82
2023-05-21T23:53:09.771Z,16.74
2023-05-21T23:58:11.284Z,16.64
